Time;durP1;ratioP1;P1;durP2;ratioP2;P2;SDS_P1;SDS_P2;PMS_P1;PMS_P2;Temp;Humidity;BMP_temperature;BMP_pressure;BME280_temperature;BME280_humidity;BME280_pressure;Samples;Min_cycle;Max_cycle;Signal;HPM_P1;HPM_P2
2021/01/27 00:00:52;;;;;;;19.80;10.10;;;;;;;-0.55;85.69;99390.44;5015005;28;20734;-69
2021/01/27 00:03:19;;;;;;;22.67;10.65;;;;;;;-0.44;85.58;99391.72;5014933;28;20052;-70
2021/01/27 00:05:49;;;;;;;23.10;10.15;;;;;;;-0.41;85.46;99390.97;5014924;28;20126;-70
2021/01/27 00:08:18;;;;;;;22.45;10.85;;;;;;;-0.43;85.32;99388.38;5014799;28;20054;-69
2021/01/27 00:10:47;;;;;;;19.65;9.65;;;;;;;-0.45;85.44;99384.97;5014850;28;20058;-69
2021/01/27 00:13:17;;;;;;;20.45;9.70;;;;;;;-0.49;85.40;99387.31;5014753;28;20042;-70
2021/01/27 00:15:45;;;;;;;26.30;13.10;;;;;;;-0.77;85.46;99336.16;5014730;28;20092;-70
2021/01/27 00:18:15;;;;;;;22.13;10.27;;;;;;;-0.48;85.01;99389.88;5014733;28;20042;-70
2021/01/27 00:20:43;;;;;;;27.92;12.45;;;;;;;-0.61;84.95;99382.69;5014450;28;20062;-70
2021/01/27 00:23:32;;;;;;;23.40;10.25;;;;;;;-0.49;85.40;99397.34;4935674;29;20040;-69
2021/01/27 00:26:00;;;;;;;20.37;9.37;;;;;;;-0.52;84.95;99388.06;4935222;29;20506;-69
2021/01/27 00:28:28;;;;;;;22.00;10.23;;;;;;;-0.59;84.72;99400.28;4935026;29;20060;-69
2021/01/27 00:30:56;;;;;;;20.30;9.32;;;;;;;-0.65;84.97;99390.91;4934800;29;20450;-70
2021/01/27 00:33:23;;;;;;;18.95;9.20;;;;;;;-0.62;84.97;99385.97;4934943;29;20039;-70
2021/01/27 00:35:51;;;;;;;17.00;8.70;;;;;;;-0.67;85.06;99385.81;4935180;29;20048;-70
2021/01/27 00:38:22;;;;;;;;;;;;;;;-0.61;84.91;99386.84;4935324;29;20139;-69
2021/01/27 00:40:53;;;;;;;17.30;8.77;;;;;;;-0.78;85.09;99378.69;4934970;29;20306;-69
2021/01/27 00:43:21;;;;;;;18.15;8.85;;;;;;;-0.62;85.02;99410.22;4934897;29;20131;-69
2021/01/27 00:45:49;;;;;;;24.17;10.15;;;;;;;-0.79;84.98;99407.03;4934736;29;20062;-69
2021/01/27 00:48:17;;;;;;;29.65;11.13;;;;;;;-0.86;84.61;99405.06;4950615;29;20044;-69
2021/01/27 00:50:45;;;;;;;26.10;10.32;;;;;;;-0.89;84.72;99400.78;4934706;29;20044;-69
2021/01/27 00:53:14;;;;;;;24.38;10.90;;;;;;;-1.11;85.13;99375.72;4934705;29;20123;-69
2021/01/27 00:55:46;;;;;;;18.55;9.02;;;;;;;-1.12;84.68;99391.53;4934629;29;20055;-70
2021/01/27 00:58:17;;;;;;;23.63;10.05;;;;;;;-1.12;84.76;99396.53;4934912;29;20047;-69
2021/01/27 01:00:50;;;;;;;19.77;9.98;;;;;;;-1.16;84.90;99391.34;4971818;28;20074;-70
2021/01/27 01:03:29;;;;;;;21.83;10.07;;;;;;;-1.10;85.34;99394.94;5014071;28;20050;-69
2021/01/27 01:05:56;;;;;;;19.38;10.20;;;;;;;-1.16;84.84;99399.72;5014270;28;20045;-69
2021/01/27 01:08:24;;;;;;;22.05;9.57;;;;;;;-1.26;85.27;99396.75;5013767;28;20042;-69
2021/01/27 01:10:57;;;;;;;21.95;10.23;;;;;;;-1.15;85.06;99400.56;5013913;28;20058;-69
2021/01/27 01:13:28;;;;;;;22.10;9.85;;;;;;;-1.17;85.47;99399.63;5013892;28;20124;-69
2021/01/27 01:15:56;;;;;;;23.23;10.00;;;;;;;-1.17;85.53;99392.13;5013915;28;20049;-70
2021/01/27 01:18:24;;;;;;;21.38;10.60;;;;;;;-1.14;85.37;99398.13;5013930;28;20052;-72
2021/01/27 01:20:52;;;;;;;20.33;9.63;;;;;;;-1.11;85.52;99397.38;5013745;28;20112;-69
2021/01/27 01:23:22;;;;;;;21.50;9.95;;;;;;;-1.05;85.58;99402.63;5013766;28;20096;-70
2021/01/27 01:25:50;;;;;;;21.45;9.43;;;;;;;-1.05;85.16;99397.63;5013784;28;20100;-70
2021/01/27 01:28:21;;;;;;;22.35;9.82;;;;;;;-1.00;85.32;99406.19;5013643;28;20125;-69
2021/01/27 01:30:51;;;;;;;22.15;10.55;;;;;;;-1.12;85.13;99400.66;5013794;28;20064;-69
2021/01/27 01:33:20;;;;;;;21.73;10.02;;;;;;;-1.28;85.21;99405.84;5012485;28;20053;-69
2021/01/27 01:35:52;;;;;;;18.45;9.85;;;;;;;-1.40;85.25;99419.59;5013692;28;20045;-70
2021/01/27 01:38:21;;;;;;;21.52;10.27;;;;;;;-1.47;84.93;99412.63;5013633;28;20120;-69
2021/01/27 01:40:50;;;;;;;25.15;11.13;;;;;;;-1.61;85.16;99408.66;5013570;28;20575;-69
2021/01/27 01:43:20;;;;;;;26.38;10.45;;;;;;;-1.60;85.04;99410.38;5015860;28;20488;-69
2021/01/27 01:45:51;;;;;;;19.63;10.18;;;;;;;-1.62;85.58;99401.09;5017569;28;20459;-69
2021/01/27 01:48:25;;;;;;;18.35;8.60;;;;;;;-1.61;85.18;99398.66;5017481;28;20077;-69
2021/01/27 01:50:59;;;;;;;17.90;9.40;;;;;;;-1.58;85.18;99400.41;5017532;28;20042;-70
2021/01/27 01:53:27;;;;;;;18.90;8.65;;;;;;;-1.54;85.11;99395.63;5017402;28;20046;-70
2021/01/27 01:55:57;;;;;;;20.80;9.20;;;;;;;-1.69;85.11;99379.97;5017329;28;20125;-70
2021/01/27 01:58:25;;;;;;;20.05;9.32;;;;;;;-1.63;84.59;99400.22;5017329;28;20041;-69
2021/01/27 02:00:58;;;;;;;18.40;9.55;;;;;;;-1.57;85.23;99400.50;5017278;28;20041;-69
2021/01/27 02:03:27;;;;;;;19.77;9.30;;;;;;;-1.63;85.08;99404.41;5017248;28;20408;-70
2021/01/27 02:05:57;;;;;;;16.52;7.95;;;;;;;-1.84;84.72;99401.81;5017244;28;20500;-69
2021/01/27 02:08:25;;;;;;;19.80;8.60;;;;;;;-1.91;85.15;99382.34;5017062;28;20046;-70
2021/01/27 02:10:53;;;;;;;16.58;7.03;;;;;;;-1.83;84.97;99401.03;5017057;28;20054;-70
2021/01/27 02:13:35;;;;;;;16.55;7.82;;;;;;;-1.90;85.00;99394.06;5017059;28;20049;-70
2021/01/27 02:16:18;;;;;;;16.55;7.30;;;;;;;-1.84;84.83;99399.31;5017036;28;20054;-70
2021/01/27 02:19:01;;;;;;;15.40;8.02;;;;;;;-1.81;85.19;99396.97;5016757;28;20054;-70
2021/01/27 02:21:41;;;;;;;16.27;7.55;;;;;;;-1.87;84.78;99398.34;5016885;28;20056;-70
2021/01/27 02:24:27;;;;;;;16.98;7.90;;;;;;;-1.92;84.86;99400.63;5016937;28;20495;-70
2021/01/27 02:27:17;;;;;;;16.65;7.63;;;;;;;-1.82;84.17;99401.91;4995435;28;20160;-70
2021/01/27 02:29:56;;;;;;;16.88;7.40;;;;;;;-1.77;84.29;99406.28;5016732;28;20038;-70
2021/01/27 02:32:46;;;;;;;15.00;7.55;;;;;;;-1.76;84.36;99397.16;5017035;28;20543;-70
2021/01/27 02:35:19;;;;;;;;;;;;;;;-1.71;84.19;99394.06;5017117;28;20041;-70
2021/01/27 02:37:51;;;;;;;14.52;7.35;;;;;;;-1.80;84.24;99396.16;5016881;28;20363;-70
2021/01/27 02:40:25;;;;;;;17.42;8.18;;;;;;;-1.69;84.16;99394.97;5016626;28;20050;-70
2021/01/27 02:43:00;;;;;;;19.25;8.00;;;;;;;-1.62;83.89;99396.94;5016543;28;20057;-70
2021/01/27 02:45:34;;;;;;;19.98;8.75;;;;;;;-1.59;84.02;99402.09;5016561;28;20050;-70
2021/01/27 02:48:09;;;;;;;15.63;7.18;;;;;;;-1.59;83.98;99407.09;5016382;28;20497;-69
2021/01/27 02:50:42;;;;;;;21.55;8.90;;;;;;;-1.54;83.98;99405.66;5016406;28;20465;-70
2021/01/27 02:53:17;;;;;;;14.88;7.97;;;;;;;-1.64;83.82;99401.03;5016338;28;20046;-70
2021/01/27 02:55:53;;;;;;;20.55;8.77;;;;;;;-1.60;83.90;99402.88;5016265;28;20084;-70
2021/01/27 02:58:25;;;;;;;20.23;8.55;;;;;;;-1.69;83.58;99399.97;5016313;28;20072;-70
2021/01/27 03:01:01;;;;;;;17.17;8.20;;;;;;;-1.57;83.69;99403.00;5016228;28;20054;-70
2021/01/27 03:03:36;;;;;;;20.15;9.07;;;;;;;-1.45;83.78;99400.16;5016153;28;20508;-70
2021/01/27 03:06:10;;;;;;;18.40;8.73;;;;;;;-1.27;83.92;99405.06;5016126;28;20073;-70
2021/01/27 03:08:44;;;;;;;20.60;9.75;;;;;;;-1.19;83.92;99411.22;5016333;28;20057;-70
2021/01/27 03:11:18;;;;;;;21.98;9.52;;;;;;;-1.23;83.67;99407.78;5016084;28;20499;-70
2021/01/27 03:13:47;;;;;;;22.13;9.98;;;;;;;-1.24;83.84;99410.19;5015939;28;20064;-70
2021/01/27 03:16:19;;;;;;;20.88;10.00;;;;;;;-1.20;83.84;99412.03;5015922;28;20530;-70
2021/01/27 03:19:01;;;;;;;21.23;9.77;;;;;;;-1.28;83.75;99403.34;5015604;28;20135;-70
2021/01/27 03:21:38;;;;;;;20.13;9.43;;;;;;;-1.23;83.85;99406.91;4998325;28;20137;-69
2021/01/27 03:24:11;;;;;;;17.48;8.57;;;;;;;-1.27;83.91;99403.41;5015769;28;20045;-70
2021/01/27 03:26:47;;;;;;;19.05;8.98;;;;;;;-1.31;84.11;99399.06;5015680;28;20420;-70
2021/01/27 03:29:23;;;;;;;22.05;9.40;;;;;;;-1.24;83.94;99406.03;5015620;28;20038;-69
2021/01/27 03:31:54;;;;;;;18.92;8.48;;;;;;;-1.26;84.07;99406.78;5015641;28;20508;-70
2021/01/27 03:34:28;;;;;;;16.88;8.18;;;;;;;-1.17;84.11;99408.00;5015740;28;20077;-70
2021/01/27 03:37:07;;;;;;;20.98;10.05;;;;;;;-1.07;84.19;99399.22;5015542;28;20048;-70
2021/01/27 03:39:41;;;;;;;22.95;10.35;;;;;;;-0.99;84.20;99397.88;5015442;28;20049;-70
2021/01/27 03:42:15;;;;;;;24.90;11.35;;;;;;;-0.99;83.97;99402.88;5015745;28;20499;-70
2021/01/27 03:44:48;;;;;;;23.50;10.90;;;;;;;-1.12;84.11;99400.66;5015382;28;20046;-69
2021/01/27 03:47:26;;;;;;;23.42;11.30;;;;;;;-1.15;84.41;99403.06;5015347;28;20050;-70
2021/01/27 03:49:59;;;;;;;25.20;10.25;;;;;;;-1.11;84.69;99409.91;5015243;28;20057;-70
2021/01/27 03:52:35;;;;;;;25.00;11.45;;;;;;;-1.13;84.47;99404.84;5015514;28;20050;-70
2021/01/27 03:55:13;;;;;;;24.65;11.30;;;;;;;-1.02;84.09;99400.25;5015522;28;20081;-70
2021/01/27 03:57:48;;;;;;;22.45;10.77;;;;;;;-1.02;84.25;99402.75;5015251;28;20408;-70
2021/01/27 04:00:18;;;;;;;22.48;10.55;;;;;;;-1.07;84.12;99409.22;5015133;28;20400;-70
2021/01/27 04:03:00;;;;;;;21.63;9.30;;;;;;;-1.06;84.30;99406.81;5015003;28;20045;-70
2021/01/27 04:05:27;;;;;;;24.17;10.65;;;;;;;-1.03;84.32;99416.09;5014477;28;20046;-69
2021/01/27 04:07:56;;;;;;;23.05;10.40;;;;;;;-1.09;84.36;99393.28;5014823;28;20042;-70
2021/01/27 04:10:24;;;;;;;22.35;10.63;;;;;;;-0.89;84.11;99415.00;4997368;28;20513;-69
2021/01/27 04:12:51;;;;;;;23.42;9.60;;;;;;;-0.90;84.27;99415.78;5014806;28;20116;-70
2021/01/27 04:15:19;;;;;;;22.88;10.13;;;;;;;-0.96;84.13;99408.03;5014806;28;20133;-70
2021/01/27 04:17:47;;;;;;;23.63;10.32;;;;;;;-1.01;83.90;99409.50;5014712;28;20046;-69
2021/01/27 04:20:16;;;;;;;22.98;10.55;;;;;;;-1.01;84.00;99414.50;5014549;28;20061;-70
2021/01/27 04:22:44;;;;;;;20.92;10.05;;;;;;;-1.01;84.17;99409.50;5014611;28;20396;-70
2021/01/27 04:25:14;;;;;;;22.27;10.65;;;;;;;-1.04;83.90;99404.34;5014622;28;20116;-69
2021/01/27 04:27:42;;;;;;;23.08;11.07;;;;;;;-1.46;84.12;99339.25;5015150;28;20072;-70
2021/01/27 04:30:13;;;;;;;21.85;10.18;;;;;;;-0.96;84.00;99408.84;5014336;28;20045;-70
2021/01/27 04:32:41;;;;;;;21.10;10.23;;;;;;;-0.90;84.35;99408.25;5014510;28;20385;-69
2021/01/27 04:35:11;;;;;;;25.10;11.30;;;;;;;-0.89;84.43;99405.81;5014477;28;20050;-70
2021/01/27 04:37:38;;;;;;;22.83;10.80;;;;;;;-0.94;84.43;99413.94;5014403;28;20126;-69
2021/01/27 04:40:08;;;;;;;17.85;8.73;;;;;;;-0.95;84.50;99407.22;5014338;28;20062;-69
2021/01/27 04:42:36;;;;;;;23.95;10.98;;;;;;;-1.04;84.61;99411.88;5014385;28;20045;-70
2021/01/27 04:45:06;;;;;;;23.95;11.07;;;;;;;-1.00;85.02;99416.19;5014221;28;20041;-70
2021/01/27 04:47:41;;;;;;;24.13;10.77;;;;;;;-1.01;84.95;99410.31;5014216;28;20125;-70
2021/01/27 04:50:17;;;;;;;30.35;13.50;;;;;;;-1.03;85.05;99409.41;5014102;28;20104;-69
2021/01/27 04:52:57;;;;;;;33.80;16.30;;;;;;;-1.06;85.23;99410.94;5014139;28;20054;-69
2021/01/27 04:55:42;;;;;;;30.33;13.60;;;;;;;-1.13;85.08;99388.97;5014150;28;20388;-70
2021/01/27 04:58:18;;;;;;;30.05;13.85;;;;;;;-1.02;85.53;99403.63;5014069;28;20072;-69
2021/01/27 05:01:00;;;;;;;30.35;13.77;;;;;;;-1.17;85.43;99377.09;5014067;28;20439;-69
2021/01/27 05:03:42;;;;;;;29.65;13.27;;;;;;;-0.95;85.84;99404.72;5013985;28;20073;-69
2021/01/27 05:06:15;;;;;;;26.60;11.73;;;;;;;-0.95;85.84;99403.06;5014003;28;20042;-69
2021/01/27 05:08:51;;;;;;;25.67;11.15;;;;;;;-0.93;85.74;99410.63;5014027;28;20056;-69
2021/01/27 05:11:21;;;;;;;26.30;12.48;;;;;;;-0.90;85.84;99398.25;4996564;28;20459;-70
2021/01/27 05:13:53;;;;;;;24.73;12.48;;;;;;;-1.01;85.88;99399.47;5013878;28;20129;-69
2021/01/27 05:16:23;;;;;;;26.70;12.50;;;;;;;-0.99;86.13;99407.91;5013817;28;20054;-69
2021/01/27 05:18:56;;;;;;;29.35;13.38;;;;;;;-1.05;86.39;99402.63;5013036;28;20140;-70
2021/01/27 05:21:28;;;;;;;26.30;12.15;;;;;;;-1.08;86.58;99405.84;5013752;28;20140;-69
2021/01/27 05:23:57;;;;;;;26.90;12.25;;;;;;;-1.06;86.47;99405.94;5013742;28;20054;-70
2021/01/27 05:26:33;;;;;;;27.60;13.27;;;;;;;-0.99;86.12;99405.41;5013609;28;20550;-70
2021/01/27 05:29:05;;;;;;;25.13;11.30;;;;;;;-1.09;86.35;99400.81;5013608;28;20045;-69
2021/01/27 05:31:38;;;;;;;29.05;12.43;;;;;;;-1.07;86.24;99400.06;5013687;28;20058;-69
2021/01/27 05:34:06;;;;;;;27.20;12.75;;;;;;;-0.94;86.28;99401.44;4996176;28;20050;-69
2021/01/27 05:36:34;;;;;;;29.98;13.25;;;;;;;-0.85;86.84;99399.28;5013558;28;20050;-69
2021/01/27 05:39:10;;;;;;;29.30;13.13;;;;;;;-0.91;86.73;99401.56;5013614;28;20554;-69
2021/01/27 05:41:39;;;;;;;31.45;13.63;;;;;;;-1.19;86.51;99359.53;5013879;28;20088;-69
2021/01/27 05:44:10;;;;;;;28.58;13.10;;;;;;;-0.93;86.71;99393.09;5013487;28;20076;-69
2021/01/27 05:46:39;;;;;;;30.85;13.52;;;;;;;-0.94;86.89;99391.41;5013574;28;20057;-70
2021/01/27 05:49:25;;;;;;;29.48;13.23;;;;;;;-1.05;86.91;99392.63;5013470;28;20054;-70
2021/01/27 05:51:53;;;;;;;29.65;12.27;;;;;;;-1.09;86.55;99390.78;5013486;28;20103;-70
2021/01/27 05:54:23;;;;;;;29.27;13.85;;;;;;;-1.15;86.71;99388.88;5013425;28;20046;-70
2021/01/27 05:56:52;;;;;;;28.33;12.15;;;;;;;-1.30;87.14;99369.91;5013912;28;20453;-69
2021/01/27 05:59:25;;;;;;;27.70;12.05;;;;;;;-1.24;86.86;99373.50;5013523;28;20042;-70
2021/01/27 06:02:00;;;;;;;32.03;13.60;;;;;;;-1.40;87.43;99348.66;5013780;28;20117;-69
2021/01/27 06:04:31;;;;;;;29.33;12.27;;;;;;;-1.13;86.94;99393.97;5013334;28;20050;-70
2021/01/27 06:07:02;;;;;;;30.10;12.32;;;;;;;-1.09;87.09;99399.16;5013364;28;20046;-69
2021/01/27 06:09:34;;;;;;;27.40;11.75;;;;;;;-1.06;87.21;99399.28;5013605;28;20121;-70
2021/01/27 06:12:05;;;;;;;24.67;11.15;;;;;;;-0.93;86.98;99403.13;5013428;28;20128;-69
2021/01/27 06:14:34;;;;;;;20.52;9.63;;;;;;;-0.83;87.04;99401.06;5013693;28;20069;-70
2021/01/27 06:17:17;;;;;;;20.88;10.68;;;;;;;-0.68;87.03;99396.66;5013173;28;20121;-70
2021/01/27 06:19:59;;;;;;;21.48;9.77;;;;;;;-0.59;86.70;99395.28;5013054;28;20064;-69
2021/01/27 06:22:42;;;;;;;21.23;9.95;;;;;;;-0.54;86.72;99399.66;5013256;28;20050;-69
2021/01/27 06:25:21;;;;;;;24.02;10.07;;;;;;;-0.52;86.08;99413.09;5013303;28;20053;-69
2021/01/27 06:28:12;;;;;;;21.60;9.65;;;;;;;-0.55;86.50;99397.94;5013215;28;20125;-69
2021/01/27 06:30:49;;;;;;;21.15;8.50;;;;;;;-0.50;86.43;99411.50;5016854;28;20052;-69
2021/01/27 06:33:32;;;;;;;16.52;8.00;;;;;;;-0.47;86.14;99415.78;5016656;28;20550;-68
2021/01/27 06:36:18;;;;;;;17.35;7.93;;;;;;;-0.48;86.09;99419.94;5016709;28;20509;-68
2021/01/27 06:39:00;;;;;;;16.75;8.27;;;;;;;-0.51;85.96;99409.81;5016582;28;20457;-68
2021/01/27 06:41:44;;;;;;;16.67;7.85;;;;;;;-0.42;85.78;99420.19;5016535;28;20061;-68
2021/01/27 06:44:26;;;;;;;17.30;8.20;;;;;;;-0.44;85.61;99416.78;5016489;28;20046;-68
2021/01/27 06:47:00;;;;;;;16.90;7.53;;;;;;;-0.42;85.56;99410.16;5016410;28;20062;-68
2021/01/27 06:49:43;;;;;;;15.82;7.40;;;;;;;-0.43;85.28;99410.94;5016325;28;20042;-68
2021/01/27 06:52:31;;;;;;;19.20;8.77;;;;;;;-0.37;85.30;99413.69;5016284;28;20502;-68
2021/01/27 06:55:08;;;;;;;17.95;7.75;;;;;;;-0.41;85.05;99404.38;5016676;28;20042;-68
2021/01/27 06:58:00;;;;;;;19.52;8.90;;;;;;;-0.21;85.40;99410.97;5016223;28;20056;-68
2021/01/27 07:00:44;;;;;;;17.13;8.07;;;;;;;-0.43;85.06;99373.34;5016214;28;20096;-68
2021/01/27 07:03:36;;;;;;;19.02;8.32;;;;;;;-0.18;84.72;99413.59;5016239;28;20129;-68
2021/01/27 07:06:33;;;;;;;19.30;9.02;;;;;;;-0.27;84.82;99415.75;5016121;28;20133;-68
2021/01/27 07:09:12;;;;;;;18.85;9.18;;;;;;;-0.23;84.80;99416.72;5015988;28;20053;-68
2021/01/27 07:11:49;;;;;;;17.73;7.87;;;;;;;-0.23;84.92;99414.22;5016008;28;20054;-68
2021/01/27 07:14:34;;;;;;;26.45;11.35;;;;;;;-0.29;84.79;99417.34;5016272;28;20100;-68
2021/01/27 07:17:14;;;;;;;23.88;10.10;;;;;;;-0.31;84.79;99393.88;5016166;28;20073;-68
2021/01/27 07:20:00;;;;;;;20.50;9.93;;;;;;;-0.15;84.79;99420.38;5015645;28;20141;-68
2021/01/27 07:22:35;;;;;;;19.90;9.52;;;;;;;-0.17;84.66;99406.94;5015780;28;20050;-68
2021/01/27 07:25:10;;;;;;;22.45;10.75;;;;;;;-0.13;84.87;99414.63;5015787;28;20133;-68
2021/01/27 07:27:45;;;;;;;24.73;10.20;;;;;;;-0.08;84.77;99420.66;5015886;28;20407;-68
2021/01/27 07:30:17;;;;;;;21.60;10.77;;;;;;;-0.08;84.83;99413.13;5015582;28;20049;-68
2021/01/27 07:32:50;;;;;;;21.08;9.82;;;;;;;-0.13;84.59;99424.66;5015570;28;20050;-68
2021/01/27 07:35:22;;;;;;;22.85;10.07;;;;;;;-0.11;84.57;99422.19;5015409;28;20050;-68
2021/01/27 07:37:58;;;;;;;19.83;8.93;;;;;;;-0.19;84.68;99419.38;5015388;28;20054;-68
2021/01/27 07:40:31;;;;;;;21.40;9.10;;;;;;;-0.46;83.88;99393.31;5014807;28;20073;-68
2021/01/27 07:43:06;;;;;;;18.38;9.13;;;;;;;-0.28;84.51;99424.06;5015552;28;20065;-68
2021/01/27 07:45:37;;;;;;;21.20;9.48;;;;;;;-0.30;84.39;99424.81;5015245;28;20117;-69
2021/01/27 07:48:16;;;;;;;21.63;9.10;;;;;;;-0.48;84.23;99424.13;5015284;28;20166;-69
2021/01/27 07:50:50;;;;;;;23.17;9.80;;;;;;;-0.59;84.12;99425.34;5015492;28;20133;-69
2021/01/27 07:53:26;;;;;;;19.35;8.20;;;;;;;-0.66;84.09;99429.25;4997850;28;20563;-69
2021/01/27 07:56:04;;;;;;;20.05;8.63;;;;;;;-0.71;84.16;99426.59;5015123;28;20053;-68
2021/01/27 07:58:38;;;;;;;20.15;9.75;;;;;;;-0.70;84.16;99429.94;5015148;28;20552;-68
2021/01/27 08:01:12;;;;;;;14.77;6.75;;;;;;;-0.67;84.14;99432.56;5013877;28;20495;-68
2021/01/27 08:03:52;;;;;;;20.13;8.73;;;;;;;-0.71;84.06;99428.22;5014989;28;20042;-68
2021/01/27 08:06:24;;;;;;;16.08;7.07;;;;;;;-1.16;83.91;99358.78;5015014;28;20049;-69
2021/01/27 08:08:55;;;;;;;18.65;8.32;;;;;;;-0.73;83.59;99437.34;5014324;28;20381;-68
2021/01/27 08:11:30;;;;;;;17.27;7.93;;;;;;;-0.71;83.47;99438.25;5014821;28;20152;-68
2021/01/27 08:13:58;;;;;;;13.63;7.22;;;;;;;-0.70;83.25;99443.31;5014783;28;20074;-69
2021/01/27 08:16:36;;;;;;;14.95;7.95;;;;;;;-0.62;83.18;99440.28;5014777;28;20073;-69
2021/01/27 08:19:08;;;;;;;20.70;9.15;;;;;;;-0.49;83.22;99437.44;5014471;28;20167;-68
2021/01/27 08:21:51;;;;;;;17.42;7.63;;;;;;;-0.35;82.81;99447.19;5014699;28;20046;-68
2021/01/27 08:24:25;;;;;;;19.27;8.50;;;;;;;-0.46;82.88;99445.06;5014928;28;20050;-68
2021/01/27 08:26:54;;;;;;;19.48;7.68;;;;;;;-0.49;82.25;99443.31;5014625;28;20132;-69
2021/01/27 08:29:26;;;;;;;18.00;7.65;;;;;;;-0.31;82.12;99443.16;5014417;28;20128;-69
2021/01/27 08:32:00;;;;;;;16.73;7.85;;;;;;;-0.20;82.04;99441.91;5014835;28;20050;-69
2021/01/27 08:34:42;;;;;;;21.23;8.32;;;;;;;-0.08;82.01;99443.22;5014436;28;20054;-70
2021/01/27 08:37:20;;;;;;;18.90;8.27;;;;;;;-0.29;81.51;99429.88;5013298;28;20108;-69
2021/01/27 08:39:48;;;;;;;18.98;7.90;;;;;;;-0.18;81.58;99456.22;5014572;28;20086;-69
2021/01/27 08:42:20;;;;;;;15.60;7.60;;;;;;;-0.14;81.86;99453.00;5014278;28;20046;-69
2021/01/27 08:44:48;;;;;;;21.02;8.48;;;;;;;-0.09;81.69;99450.69;5014353;28;20064;-68
2021/01/27 08:47:23;;;;;;;18.38;8.63;;;;;;;0.12;81.46;99455.66;5014250;28;20488;-68
2021/01/27 08:49:54;;;;;;;19.98;9.70;;;;;;;0.31;81.60;99451.31;5014441;28;20042;-69
2021/01/27 08:52:29;;;;;;;17.25;8.43;;;;;;;0.34;81.44;99453.09;5014149;28;20045;-69
2021/01/27 08:54:57;;;;;;;16.42;8.65;;;;;;;0.35;81.46;99457.31;5014084;28;20454;-68
2021/01/27 08:57:29;;;;;;;21.65;9.60;;;;;;;0.52;81.43;99453.75;5014143;28;20488;-68
2021/01/27 09:00:03;;;;;;;26.40;10.93;;;;;;;0.54;80.98;99450.50;5014075;28;20046;-68
2021/01/27 09:02:37;;;;;;;23.25;9.77;;;;;;;0.61;81.21;99454.94;5013819;28;20042;-68
2021/01/27 09:05:11;;;;;;;21.63;11.15;;;;;;;0.66;80.80;99452.56;5013941;28;20053;-68
2021/01/27 09:07:47;;;;;;;25.65;13.23;;;;;;;0.83;80.84;99463.19;5013911;28;20488;-68
2021/01/27 09:10:17;;;;;;;22.02;11.52;;;;;;;0.83;80.61;99448.97;5013895;28;20042;-69
2021/01/27 09:12:48;;;;;;;18.27;9.93;;;;;;;0.77;80.70;99430.34;5013729;28;20042;-69
2021/01/27 09:15:24;;;;;;;35.58;16.80;;;;;;;0.93;80.27;99461.06;5018758;28;20506;-69
2021/01/27 09:17:52;;;;;;;28.70;13.23;;;;;;;1.04;79.76;99461.41;4992598;28;20075;-70
2021/01/27 09:20:24;;;;;;;34.20;16.10;;;;;;;1.06;79.55;99455.63;5019182;28;20089;-70
2021/01/27 09:22:59;;;;;;;23.40;11.25;;;;;;;1.18;79.44;99463.56;5030543;28;20050;-69
2021/01/27 09:25:27;;;;;;;18.10;9.27;;;;;;;1.20;79.14;99463.63;5033472;28;20052;-70
2021/01/27 09:28:00;;;;;;;16.23;8.40;;;;;;;1.25;79.48;99470.50;5033413;28;20478;-69
2021/01/27 09:30:29;;;;;;;13.77;6.65;;;;;;;1.01;78.50;99446.25;5033346;28;20499;-70
2021/01/27 09:33:15;;;;;;;15.93;7.60;;;;;;;0.92;78.21;99466.88;5033363;28;20044;-68
2021/01/27 09:35:45;;;;;;;14.95;7.10;;;;;;;1.02;78.00;99463.88;5033251;28;20408;-70
2021/01/27 09:38:21;;;;;;;11.82;6.32;;;;;;;1.13;78.44;99457.53;5033519;28;20057;-70
2021/01/27 09:40:53;;;;;;;14.15;7.00;;;;;;;1.39;78.42;99465.94;5033411;28;20384;-69
2021/01/27 09:43:23;;;;;;;13.40;7.18;;;;;;;1.50;78.42;99459.56;5033407;28;20092;-69
2021/01/27 09:45:54;;;;;;;13.23;5.75;;;;;;;1.31;77.22;99468.19;5033248;28;20038;-69
2021/01/27 09:48:37;;;;;;;14.45;6.95;;;;;;;1.18;77.56;99457.66;5033247;28;20054;-69
2021/01/27 09:51:06;;;;;;;13.88;6.80;;;;;;;1.16;77.81;99459.28;5033591;28;20568;-70
2021/01/27 09:53:36;;;;;;;13.45;7.07;;;;;;;1.29;78.02;99457.25;5033406;28;20120;-69
2021/01/27 09:56:07;;;;;;;15.02;7.13;;;;;;;1.32;78.29;99453.94;5015590;28;20045;-70
2021/01/27 09:58:40;;;;;;;14.18;7.47;;;;;;;1.31;78.31;99450.59;5033195;28;20128;-69
2021/01/27 10:01:16;;;;;;;13.98;6.45;;;;;;;1.24;77.62;99416.03;5032053;28;20053;-70
2021/01/27 10:03:46;;;;;;;14.65;7.45;;;;;;;1.11;77.54;99373.72;4994850;28;20053;-69
2021/01/27 10:06:19;;;;;;;13.07;6.97;;;;;;;1.83;77.04;99445.50;4997583;28;20043;-70
2021/01/27 10:09:09;;;;;;;14.07;7.13;;;;;;;1.99;77.10;99429.22;5133065;27;20333;-70
2021/01/27 10:11:37;;;;;;;15.32;7.35;;;;;;;2.26;76.65;99451.75;5131876;27;20051;-70
2021/01/27 10:14:09;;;;;;;15.88;7.75;;;;;;;2.22;76.19;99450.84;5131903;27;20099;-70
2021/01/27 10:16:49;;;;;;;14.63;7.43;;;;;;;2.15;75.88;99440.56;5132203;27;20430;-70
2021/01/27 10:19:24;;;;;;;15.65;7.95;;;;;;;2.34;76.05;99441.13;5130724;28;20443;-70
2021/01/27 10:21:54;;;;;;;15.02;7.70;;;;;;;1.40;73.88;99263.13;5131780;27;20051;-71
2021/01/27 10:24:42;;;;;;;14.57;6.78;;;;;;;2.57;74.27;99435.03;5131713;27;20053;-70
2021/01/27 10:27:17;;;;;;;10.95;7.05;;;;;;;2.69;73.44;99440.41;5088862;28;20128;-71
2021/01/27 10:29:45;;;;;;;14.20;8.20;;;;;;;2.64;72.82;99416.75;5088816;28;20505;-72
2021/01/27 10:32:18;;;;;;;12.73;6.85;;;;;;;2.70;72.63;99437.06;5071799;28;20123;-72
2021/01/27 10:34:48;;;;;;;11.65;6.22;;;;;;;2.76;71.59;99440.56;5088582;28;20124;-73
2021/01/27 10:37:21;;;;;;;12.05;6.80;;;;;;;2.97;71.87;99441.13;5088372;28;20047;-72
2021/01/27 10:40:06;;;;;;;10.00;5.70;;;;;;;3.07;70.50;99438.84;5088585;28;20044;-71
2021/01/27 10:42:37;;;;;;;9.00;4.60;;;;;;;3.05;69.97;99439.63;5088579;28;20056;-72
2021/01/27 10:45:10;;;;;;;8.98;5.32;;;;;;;3.01;69.33;99435.31;5088549;28;20044;-72
2021/01/27 10:47:40;;;;;;;11.55;5.32;;;;;;;3.11;70.16;99434.75;5071361;28;20048;-70
2021/01/27 10:50:09;;;;;;;10.20;5.28;;;;;;;3.23;70.12;99432.53;5088196;28;20119;-72
2021/01/27 10:52:59;;;;;;;10.80;5.63;;;;;;;3.14;69.30;99404.56;5088173;28;20054;-72
2021/01/27 10:55:31;;;;;;;9.45;4.68;;;;;;;3.45;69.48;99432.22;5088034;28;20467;-70
2021/01/27 10:58:09;;;;;;;8.38;4.55;;;;;;;3.39;68.92;99406.84;5087804;28;20051;-70
2021/01/27 11:00:39;;;;;;;9.88;5.28;;;;;;;3.57;69.08;99427.47;5085003;28;20083;-69
2021/01/27 11:03:09;;;;;;;8.98;5.28;;;;;;;3.73;68.79;99424.47;5089086;28;20045;-71
2021/01/27 11:05:37;;;;;;;8.25;4.75;;;;;;;3.72;68.30;99422.75;5131221;27;20051;-70
2021/01/27 11:08:06;;;;;;;13.00;6.75;;;;;;;3.72;68.43;99432.84;5130533;27;20051;-70
2021/01/27 11:10:34;;;;;;;11.35;5.90;;;;;;;3.60;68.27;99422.47;5130529;27;20054;-70
2021/01/27 11:13:03;;;;;;;9.02;5.32;;;;;;;3.45;68.97;99416.22;5130383;28;20040;-72
2021/01/27 11:15:31;;;;;;;11.93;6.47;;;;;;;3.51;68.89;99428.97;5130540;27;20388;-70
2021/01/27 11:17:59;;;;;;;9.32;4.75;;;;;;;3.43;68.09;99423.78;5129239;27;20439;-72
2021/01/27 11:20:29;;;;;;;9.30;5.10;;;;;;;3.20;67.99;99409.75;5113339;28;20075;-71
2021/01/27 11:22:57;;;;;;;9.13;5.07;;;;;;;3.24;67.93;99424.13;5115582;28;20083;-71
2021/01/27 11:25:27;;;;;;;11.90;5.57;;;;;;;3.19;67.54;99418.16;5116762;28;20497;-71
2021/01/27 11:27:56;;;;;;;8.43;4.50;;;;;;;3.16;67.32;99425.63;5115506;28;20077;-71
2021/01/27 11:30:26;;;;;;;11.02;5.05;;;;;;;3.15;67.51;99416.34;5117071;28;20043;-71
2021/01/27 11:32:56;;;;;;;9.85;4.82;;;;;;;2.86;67.92;99377.84;5115583;28;20058;-73
2021/01/27 11:35:24;;;;;;;12.30;6.03;;;;;;;3.10;68.19;99417.91;5116922;28;20047;-73
2021/01/27 11:37:53;;;;;;;10.60;6.18;;;;;;;3.14;67.21;99417.19;5116557;28;20460;-71
2021/01/27 11:40:24;;;;;;;9.80;5.13;;;;;;;3.29;67.60;99409.97;5116442;28;20036;-70
2021/01/27 11:42:52;;;;;;;9.48;5.30;;;;;;;3.87;66.58;99387.75;5116500;28;20539;-71
2021/01/27 11:45:21;;;;;;;7.72;4.43;;;;;;;4.09;65.54;99389.03;5116131;28;20058;-72
2021/01/27 11:47:49;;;;;;;11.80;5.35;;;;;;;4.45;64.34;99412.50;5116470;28;20044;-72
2021/01/27 11:50:21;;;;;;;8.02;4.57;;;;;;;4.67;63.97;99406.16;5116179;28;20036;-71
2021/01/27 11:52:49;;;;;;;7.93;4.40;;;;;;;5.07;62.75;99407.69;5116404;28;20119;-72
2021/01/27 11:55:18;;;;;;;8.10;4.00;;;;;;;4.84;62.86;99409.84;5115086;28;20513;-72